Time;durP1;ratioP1;P1;durP2;ratioP2;P2;SDS_P1;SDS_P2;PMS_P1;PMS_P2;Temp;Humidity;BMP_temperature;BMP_pressure;BME280_temperature;BME280_humidity;BME280_pressure;Samples;Min_cycle;Max_cycle;Signal;HPM_P1;HPM_P2
2024/01/25 00:01:12;;;;;;;9.75;2.85;;;16.60;99.90;;;;;;5051779;28;20048;-74
2024/01/25 00:03:38;;;;;;;16.07;3.40;;;16.60;99.90;;;;;;5054473;28;20386;-74
2024/01/25 00:06:06;;;;;;;10.93;2.80;;;16.60;99.90;;;;;;5052505;28;20371;-74
2024/01/25 00:08:31;;;;;;;12.27;3.00;;;16.60;99.90;;;;;;5053769;28;20039;-75
2024/01/25 00:10:57;;;;;;;10.47;2.97;;;16.60;99.90;;;;;;5053094;28;20025;-75
2024/01/25 00:13:23;;;;;;;13.38;3.13;;;16.60;99.90;;;;;;5054198;28;20490;-75
2024/01/25 00:15:49;;;;;;;14.77;3.10;;;16.50;99.90;;;;;;5052344;28;20128;-76
2024/01/25 00:18:15;;;;;;;12.73;2.93;;;16.50;99.90;;;;;;5051440;28;20119;-76
2024/01/25 00:20:40;;;;;;;13.87;3.23;;;16.50;99.90;;;;;;5040842;28;20029;-77
2024/01/25 00:23:06;;;;;;;14.73;3.20;;;16.50;99.90;;;;;;5049247;28;20032;-78
2024/01/25 00:25:32;;;;;;;10.52;2.67;;;16.50;99.90;;;;;;5053812;28;20087;-77
2024/01/25 00:27:58;;;;;;;7.43;2.80;;;16.50;99.90;;;;;;5051805;28;20593;-76
2024/01/25 00:30:24;;;;;;;9.77;2.67;;;16.50;99.90;;;;;;5043103;28;20047;-77
2024/01/25 00:32:49;;;;;;;15.33;3.43;;;16.40;99.90;;;;;;5049661;28;20382;-77
2024/01/25 00:35:16;;;;;;;13.33;3.33;;;16.40;99.90;;;;;;5050275;28;20461;-77
2024/01/25 00:37:42;;;;;;;10.68;3.03;;;16.50;99.90;;;;;;5051881;28;20083;-77
2024/01/25 00:40:08;;;;;;;12.27;3.05;;;16.40;99.90;;;;;;5037607;28;20462;-77
2024/01/25 00:42:56;;;;;;;8.93;2.55;;;16.40;99.90;;;;;;5051436;28;20037;-78
2024/01/25 00:45:23;;;;;;;12.07;2.58;;;16.40;99.90;;;;;;5052355;28;20445;-77
2024/01/25 00:47:50;;;;;;;10.57;3.05;;;16.40;99.90;;;;;;5045090;28;20033;-78
2024/01/25 00:50:17;;;;;;;11.38;2.72;;;16.40;99.90;;;;;;5051415;28;20490;-78
2024/01/25 00:52:44;;;;;;;10.95;3.38;;;16.40;99.90;;;;;;5037505;28;20502;-77
2024/01/25 00:55:10;;;;;;;;;;;16.30;99.90;;;;;;5052005;28;20036;-77
2024/01/25 00:57:36;;;;;;;8.82;2.45;;;16.30;99.90;;;;;;5051932;28;19978;-77
2024/01/25 01:00:02;;;;;;;7.95;2.35;;;16.30;99.90;;;;;;5044059;28;20507;-78
2024/01/25 01:02:35;;;;;;;11.60;2.55;;;16.30;99.90;;;;;;5044878;28;20024;-80
2024/01/25 01:05:00;;;;;;;14.25;2.75;;;16.30;99.90;;;;;;5041136;28;20037;-78
2024/01/25 01:07:27;;;;;;;10.97;2.53;;;16.30;99.90;;;;;;5050192;28;20355;-78
2024/01/25 01:09:53;;;;;;;12.48;2.85;;;16.20;99.90;;;;;;5051572;28;20033;-78
2024/01/25 01:12:19;;;;;;;8.83;2.23;;;16.20;99.90;;;;;;5043804;28;20081;-79
2024/01/25 01:14:44;;;;;;;12.30;2.87;;;16.20;99.90;;;;;;5048875;28;20266;-78
2024/01/25 01:17:10;;;;;;;10.53;2.60;;;16.20;99.90;;;;;;5051206;28;20037;-78
2024/01/25 01:19:36;;;;;;;8.07;2.73;;;16.20;99.90;;;;;;5043027;28;20037;-78
2024/01/25 01:22:02;;;;;;;9.70;2.83;;;16.20;99.90;;;;;;5044492;28;20041;-78
2024/01/25 01:24:27;;;;;;;11.03;2.50;;;16.20;99.90;;;;;;5051121;28;20025;-77
2024/01/25 01:26:53;;;;;;;10.90;2.30;;;16.20;99.90;;;;;;5051656;28;20438;-77
2024/01/25 01:29:19;;;;;;;13.00;2.57;;;16.20;99.90;;;;;;5044291;28;20104;-77
2024/01/25 01:31:45;;;;;;;10.90;3.00;;;16.10;99.90;;;;;;5043326;28;20017;-78
2024/01/25 01:34:12;;;;;;;16.57;3.27;;;16.10;99.90;;;;;;5045287;28;20029;-79
2024/01/25 01:36:38;;;;;;;10.95;2.45;;;16.10;99.90;;;;;;5045351;28;20619;-76
2024/01/25 01:39:04;;;;;;;13.27;3.63;;;16.10;99.90;;;;;;5045738;28;20047;-78
2024/01/25 01:41:29;;;;;;;7.70;2.73;;;16.10;99.90;;;;;;5044972;28;20029;-79
2024/01/25 01:43:55;;;;;;;14.87;2.53;;;16.10;99.90;;;;;;5031392;28;20111;-76
2024/01/25 01:46:39;;;;;;;14.87;3.17;;;16.10;99.90;;;;;;5047294;28;20037;-79
2024/01/25 01:49:07;;;;;;;15.52;2.80;;;16.10;99.90;;;;;;5076049;28;20029;-78
2024/01/25 01:51:34;;;;;;;8.20;2.90;;;16.10;99.90;;;;;;5047959;28;20390;-78
2024/01/25 01:54:02;;;;;;;14.02;3.08;;;16.10;99.90;;;;;;5041398;28;20039;-79
2024/01/25 01:56:29;;;;;;;9.32;2.28;;;16.10;99.90;;;;;;5043705;28;20021;-80
2024/01/25 01:58:59;;;;;;;11.30;2.72;;;16.00;99.90;;;;;;5044804;28;20029;-78
2024/01/25 02:01:25;;;;;;;13.73;2.90;;;16.00;99.90;;;;;;5050863;28;20047;-78
2024/01/25 02:03:51;;;;;;;11.10;2.72;;;16.00;99.90;;;;;;5031448;28;20017;-78
2024/01/25 02:06:18;;;;;;;9.57;3.05;;;16.00;99.90;;;;;;5043027;28;20041;-79
2024/01/25 02:08:44;;;;;;;10.20;2.78;;;16.00;99.90;;;;;;5046704;28;20051;-79
2024/01/25 02:11:12;;;;;;;7.53;2.80;;;16.00;99.90;;;;;;5044209;28;20398;-79
2024/01/25 02:13:38;;;;;;;15.13;2.70;;;16.00;99.90;;;;;;5050631;28;20029;-78
2024/01/25 02:16:05;;;;;;;9.87;2.97;;;16.00;99.90;;;;;;5050006;28;20116;-80
2024/01/25 02:18:31;;;;;;;16.10;3.08;;;16.00;99.90;;;;;;5051065;28;20029;-79
2024/01/25 02:20:57;;;;;;;10.97;2.47;;;15.90;99.90;;;;;;5049623;28;20039;-81
2024/01/25 02:23:22;;;;;;;15.13;3.07;;;15.90;99.90;;;;;;5037972;28;20326;-78
2024/01/25 02:25:48;;;;;;;9.30;2.23;;;15.90;99.90;;;;;;5034449;28;20466;-78
2024/01/25 02:28:14;;;;;;;7.77;2.40;;;15.90;99.90;;;;;;5046445;28;20040;-78
2024/01/25 02:30:39;;;;;;;10.17;2.53;;;15.90;99.90;;;;;;5035481;28;20467;-80
2024/01/25 02:33:05;;;;;;;8.67;2.50;;;15.90;99.90;;;;;;5049543;28;20033;-78
2024/01/25 02:35:31;;;;;;;10.43;2.43;;;15.90;99.90;;;;;;5049836;28;20040;-78
2024/01/25 02:37:56;;;;;;;6.73;2.00;;;15.80;99.90;;;;;;5042760;28;20049;-78
2024/01/25 02:40:22;;;;;;;9.97;2.30;;;15.80;99.90;;;;;;5051206;28;20025;-78
2024/01/25 02:42:48;;;;;;;7.27;1.80;;;15.80;99.90;;;;;;5047637;28;20104;-77
2024/01/25 02:45:14;;;;;;;7.67;2.33;;;15.80;99.90;;;;;;5030942;28;20068;-76
2024/01/25 02:47:40;;;;;;;7.10;3.35;;;15.80;99.90;;;;;;5033371;28;20505;-78
2024/01/25 02:50:06;;;;;;;10.53;3.00;;;15.80;99.90;;;;;;5038361;28;20034;-76
2024/01/25 02:52:33;;;;;;;9.38;2.63;;;15.80;99.90;;;;;;5039746;28;20035;-78
2024/01/25 02:54:58;;;;;;;9.60;2.55;;;15.80;99.90;;;;;;5042910;28;20025;-79
2024/01/25 02:57:25;;;;;;;6.17;1.97;;;15.80;99.90;;;;;;5047022;28;20155;-79
2024/01/25 02:59:51;;;;;;;11.50;2.13;;;15.70;99.90;;;;;;5044243;28;20298;-79
2024/01/25 03:02:19;;;;;;;7.13;2.53;;;15.80;99.90;;;;;;5037756;28;20379;-78
2024/01/25 03:04:45;;;;;;;8.63;1.98;;;15.70;99.90;;;;;;5045437;28;20036;-80
2024/01/25 03:07:11;;;;;;;12.20;2.95;;;15.70;99.90;;;;;;5032038;28;20025;-78
2024/01/25 03:09:37;;;;;;;12.63;2.55;;;15.70;99.90;;;;;;5034597;28;20045;-77
2024/01/25 03:12:03;;;;;;;9.20;2.50;;;15.70;99.90;;;;;;5039578;28;20032;-80
2024/01/25 03:14:29;;;;;;;7.40;2.40;;;15.70;99.90;;;;;;5047853;28;20060;-78
2024/01/25 03:16:54;;;;;;;14.27;2.17;;;15.70;99.90;;;;;;5053925;28;20423;-79
2024/01/25 03:19:22;;;;;;;10.20;2.80;;;15.60;99.90;;;;;;5054028;28;20343;-79
2024/01/25 03:21:48;;;;;;;4.03;1.90;;;15.70;99.90;;;;;;5052354;28;20025;-78
2024/01/25 03:24:14;;;;;;;10.57;2.67;;;15.60;99.90;;;;;;5053391;28;20437;-77
2024/01/25 03:26:39;;;;;;;11.57;2.07;;;15.60;99.90;;;;;;5054033;28;20470;-78
2024/01/25 03:29:05;;;;;;;9.60;2.53;;;15.60;99.90;;;;;;5054215;28;20024;-77
2024/01/25 03:31:31;;;;;;;12.73;2.87;;;15.60;99.90;;;;;;5054048;28;20021;-78
2024/01/25 03:33:57;;;;;;;9.13;1.87;;;15.60;99.90;;;;;;5054812;28;20525;-77
2024/01/25 03:36:22;;;;;;;12.17;2.43;;;15.60;99.90;;;;;;5052585;28;20501;-79
2024/01/25 03:38:48;;;;;;;7.10;2.20;;;15.60;99.90;;;;;;5042981;28;20040;-78
2024/01/25 03:41:14;;;;;;;12.10;2.53;;;15.60;99.90;;;;;;5053759;28;20059;-77
2024/01/25 03:43:40;;;;;;;8.10;1.73;;;15.50;99.90;;;;;;5053275;28;20028;-82
2024/01/25 03:46:06;;;;;;;8.13;2.27;;;15.50;99.90;;;;;;5050314;28;20029;-78
2024/01/25 03:48:32;;;;;;;9.40;2.03;;;15.50;99.90;;;;;;5053564;28;20290;-77
2024/01/25 03:50:57;;;;;;;6.50;2.10;;;15.50;99.90;;;;;;5055091;28;20029;-78
2024/01/25 03:53:23;;;;;;;14.30;2.50;;;15.50;99.90;;;;;;5054782;28;20037;-78
2024/01/25 03:55:49;;;;;;;10.20;2.33;;;15.50;99.90;;;;;;5053149;28;20053;-79
2024/01/25 03:58:18;;;;;;;11.30;2.40;;;15.40;99.90;;;;;;5053701;28;20082;-78
2024/01/25 04:00:44;;;;;;;6.60;1.90;;;15.40;99.90;;;;;;5055061;28;20055;-78
2024/01/25 04:03:10;;;;;;;10.80;2.60;;;15.50;99.90;;;;;;5053219;28;20462;-79
2024/01/25 04:05:36;;;;;;;7.53;1.90;;;15.40;99.90;;;;;;5052967;28;20080;-78
2024/01/25 04:08:03;;;;;;;8.57;2.60;;;15.40;99.90;;;;;;5053197;28;20504;-78
2024/01/25 04:10:28;;;;;;;7.88;2.35;;;15.40;99.90;;;;;;5054929;28;20024;-78
2024/01/25 04:12:54;;;;;;;9.10;2.50;;;15.40;99.90;;;;;;5053546;28;20055;-78
2024/01/25 04:15:20;;;;;;;9.13;2.77;;;15.40;99.90;;;;;;5053273;28;20359;-76
2024/01/25 04:17:46;;;;;;;7.53;2.17;;;15.40;99.90;;;;;;5053506;28;20029;-78
2024/01/25 04:20:12;;;;;;;7.03;2.10;;;15.40;99.90;;;;;;5054368;28;20064;-79
2024/01/25 04:22:38;;;;;;;8.88;1.67;;;15.30;99.90;;;;;;5052435;28;20115;-78
2024/01/25 04:25:04;;;;;;;8.80;1.97;;;15.30;99.90;;;;;;5052656;28;20152;-78
2024/01/25 04:27:30;;;;;;;8.23;2.55;;;15.30;99.90;;;;;;5053443;28;20029;-78
2024/01/25 04:29:56;;;;;;;16.00;3.20;;;15.30;99.90;;;;;;5053302;28;20048;-77
2024/01/25 04:32:22;;;;;;;9.03;1.63;;;15.30;99.90;;;;;;5051867;28;20029;-78
2024/01/25 04:34:48;;;;;;;11.83;2.20;;;15.30;99.90;;;;;;5052940;28;20028;-78
2024/01/25 04:37:14;;;;;;;5.77;1.97;;;15.30;99.90;;;;;;5053129;28;20293;-78
2024/01/25 04:39:40;;;;;;;8.98;2.17;;;15.30;99.90;;;;;;5038801;28;20367;-77
2024/01/25 04:42:06;;;;;;;10.20;2.58;;;15.20;99.90;;;;;;5051619;28;20040;-78
2024/01/25 04:44:32;;;;;;;6.30;1.63;;;15.20;99.90;;;;;;5052560;28;20029;-79
2024/01/25 04:46:58;;;;;;;8.90;1.95;;;15.20;99.90;;;;;;5049083;28;20025;-78
2024/01/25 04:49:24;;;;;;;8.93;2.23;;;15.20;99.90;;;;;;5052330;28;20340;-78
2024/01/25 04:51:50;;;;;;;7.30;1.87;;;15.20;99.90;;;;;;5052566;28;20032;-78
2024/01/25 04:54:16;;;;;;;8.75;1.95;;;15.20;99.90;;;;;;5053968;28;20028;-78
2024/01/25 04:56:42;;;;;;;5.50;2.00;;;15.10;99.90;;;;;;5052505;28;20037;-79
2024/01/25 04:59:08;;;;;;;8.18;1.90;;;15.10;99.90;;;;;;5052484;28;20041;-78
2024/01/25 05:01:34;;;;;;;8.73;2.33;;;15.10;99.90;;;;;;5051952;28;20118;-77
2024/01/25 05:04:00;;;;;;;4.97;1.80;;;15.10;99.90;;;;;;5052059;28;20036;-78
2024/01/25 05:06:26;;;;;;;8.85;1.92;;;15.10;99.90;;;;;;5053340;28;20549;-76
2024/01/25 05:08:52;;;;;;;9.47;2.20;;;15.10;99.90;;;;;;5075158;28;20115;-78
2024/01/25 05:11:17;;;;;;;6.30;1.90;;;15.10;99.90;;;;;;5052731;28;20163;-77
2024/01/25 05:13:43;;;;;;;7.97;2.17;;;15.00;99.90;;;;;;5051621;28;20471;-78
2024/01/25 05:16:09;;;;;;;8.10;1.73;;;15.00;99.90;;;;;;5052416;28;20122;-78
2024/01/25 05:18:35;;;;;;;8.07;1.67;;;15.10;99.90;;;;;;5051619;28;20044;-77
2024/01/25 05:21:00;;;;;;;6.10;1.47;;;15.00;99.90;;;;;;5052230;28;20029;-78
2024/01/25 05:23:26;;;;;;;8.57;1.97;;;15.00;99.90;;;;;;5052586;28;20029;-78
2024/01/25 05:25:53;;;;;;;7.43;1.77;;;15.00;99.90;;;;;;5051994;28;20082;-78
2024/01/25 05:28:18;;;;;;;7.90;2.05;;;15.00;99.90;;;;;;5051940;28;20377;-81
2024/01/25 05:30:44;;;;;;;8.17;1.93;;;15.00;99.90;;;;;;5053581;28;20136;-78
2024/01/25 05:33:10;;;;;;;7.23;1.70;;;15.00;99.90;;;;;;5051779;28;20048;-78
2024/01/25 05:35:36;;;;;;;8.67;2.13;;;14.90;99.90;;;;;;5051141;28;20028;-80
2024/01/25 05:38:02;;;;;;;7.43;1.70;;;14.90;99.90;;;;;;5051299;28;20131;-78
2024/01/25 05:40:27;;;;;;;7.77;1.50;;;14.90;99.90;;;;;;5051889;28;20090;-79
2024/01/25 05:42:53;;;;;;;7.93;2.10;;;14.90;99.90;;;;;;5051663;28;20020;-78
2024/01/25 05:45:21;;;;;;;8.67;1.63;;;14.90;99.90;;;;;;5051477;28;20049;-78
2024/01/25 05:47:49;;;;;;;9.90;2.35;;;14.90;99.90;;;;;;5051072;28;20036;-79
2024/01/25 05:50:15;;;;;;;7.53;1.92;;;14.90;99.90;;;;;;5051617;28;20091;-78
2024/01/25 05:52:41;;;;;;;7.45;2.40;;;14.80;99.90;;;;;;5051397;28;20087;-77
2024/01/25 05:55:07;;;;;;;5.53;1.87;;;14.90;99.90;;;;;;5051591;28;20025;-78
2024/01/25 05:57:35;;;;;;;11.25;2.58;;;14.80;99.90;;;;;;5053092;28;20021;-78
2024/01/25 06:00:01;;;;;;;6.20;2.30;;;14.80;99.90;;;;;;5052152;28;20048;-78
2024/01/25 06:02:27;;;;;;;6.53;1.70;;;14.80;99.90;;;;;;5050698;28;20028;-81
2024/01/25 06:04:52;;;;;;;7.67;1.80;;;14.80;99.90;;;;;;5050568;28;20025;-80
2024/01/25 06:07:18;;;;;;;9.07;2.93;;;14.80;99.90;;;;;;5051361;28;20423;-78
2024/01/25 06:09:44;;;;;;;6.13;1.50;;;14.80;99.90;;;;;;5050671;28;20478;-76
2024/01/25 06:12:10;;;;;;;10.00;2.27;;;14.70;99.90;;;;;;5048076;28;20074;-79
2024/01/25 06:14:36;;;;;;;7.57;1.67;;;14.80;99.90;;;;;;5050498;28;20033;-77
2024/01/25 06:17:02;;;;;;;6.50;1.98;;;14.70;99.90;;;;;;5052046;28;20028;-77
2024/01/25 06:19:28;;;;;;;7.70;2.67;;;14.80;99.90;;;;;;5050962;28;20036;-77
2024/01/25 06:21:53;;;;;;;9.63;2.07;;;14.70;99.90;;;;;;5052073;28;20021;-78
2024/01/25 06:24:19;;;;;;;6.17;1.70;;;14.70;99.90;;;;;;5050784;28;20037;-77
2024/01/25 06:26:45;;;;;;;9.37;2.67;;;14.70;99.90;;;;;;5051582;28;20040;-77
2024/01/25 06:29:11;;;;;;;8.10;2.50;;;14.70;99.90;;;;;;5050733;28;20044;-77
2024/01/25 06:31:43;;;;;;;15.37;2.27;;;14.70;99.90;;;;;;5050598;28;20112;-79
2024/01/25 06:34:08;;;;;;;6.20;1.48;;;14.70;99.90;;;;;;5042614;28;20025;-77
2024/01/25 06:36:34;;;;;;;6.90;1.80;;;14.60;99.90;;;;;;5051867;28;20045;-80
2024/01/25 06:39:00;;;;;;;6.93;1.97;;;14.60;99.90;;;;;;5048548;28;20029;-77
2024/01/25 06:41:26;;;;;;;9.70;1.50;;;14.60;99.90;;;;;;5050584;28;20068;-78
2024/01/25 06:43:52;;;;;;;7.83;1.57;;;14.60;99.90;;;;;;5051000;28;20369;-77
2024/01/25 06:46:18;;;;;;;10.00;2.60;;;14.60;99.90;;;;;;5049929;28;20025;-77
2024/01/25 06:48:43;;;;;;;9.80;2.07;;;14.60;99.90;;;;;;5050487;28;20091;-77
2024/01/25 06:51:09;;;;;;;7.13;1.80;;;14.60;99.90;;;;;;5050380;28;20762;-80
2024/01/25 06:53:35;;;;;;;23.67;2.53;;;14.60;99.90;;;;;;5051982;28;20033;-77
2024/01/25 06:56:00;;;;;;;7.83;1.57;;;14.60;99.90;;;;;;5051339;28;20390;-77
2024/01/25 06:58:26;;;;;;;6.67;1.30;;;14.60;99.90;;;;;;5050282;28;20043;-77
2024/01/25 07:00:52;;;;;;;9.83;2.33;;;14.50;99.90;;;;;;5051647;28;20033;-79
2024/01/25 07:03:18;;;;;;;9.50;2.20;;;14.50;99.90;;;;;;5049752;28;20374;-80
2024/01/25 07:05:44;;;;;;;4.70;1.73;;;14.50;99.90;;;;;;5050151;28;20033;-80
2024/01/25 07:08:13;;;;;;;8.20;1.90;;;14.50;99.90;;;;;;5051953;28;20037;-79
2024/01/25 07:10:40;;;;;;;10.65;1.90;;;14.50;99.90;;;;;;5049156;28;20037;-77
2024/01/25 07:13:06;;;;;;;;;;;14.50;99.90;;;;;;5050745;28;20301;-77
2024/01/25 07:15:32;;;;;;;6.47;1.50;;;14.50;99.90;;;;;;5049696;28;19905;-78
2024/01/25 07:17:57;;;;;;;11.65;2.00;;;14.40;99.90;;;;;;5051473;28;20033;-80
2024/01/25 07:20:23;;;;;;;5.63;2.30;;;14.40;99.90;;;;;;5050133;28;20628;-77
2024/01/25 07:22:49;;;;;;;7.93;1.70;;;14.50;99.90;;;;;;5050355;28;20064;-77
2024/01/25 07:25:15;;;;;;;9.57;1.90;;;14.40;99.90;;;;;;5050125;28;20063;-80
2024/01/25 07:27:45;;;;;;;4.20;1.73;;;14.40;99.90;;;;;;5049903;28;20470;-80
2024/01/25 07:30:12;;;;;;;13.30;1.83;;;14.40;99.90;;;;;;5050954;28;20470;-77
2024/01/25 07:32:57;;;;;;;10.68;1.77;;;14.40;99.90;;;;;;5026926;28;20033;-78
2024/01/25 07:35:23;;;;;;;7.23;2.00;;;14.40;99.90;;;;;;4996047;28;20049;-77
2024/01/25 07:37:49;;;;;;;7.25;2.30;;;14.40;99.90;;;;;;4993651;28;20048;-76
2024/01/25 07:40:14;;;;;;;6.73;1.97;;;14.40;99.90;;;;;;5000082;28;20033;-76
2024/01/25 07:42:40;;;;;;;6.33;1.40;;;14.40;99.90;;;;;;5010362;28;20109;-78
2024/01/25 07:45:07;;;;;;;10.47;2.30;;;14.40;99.90;;;;;;4998990;28;20034;-77
2024/01/25 07:47:33;;;;;;;;;;;14.30;99.90;;;;;;4995944;28;20037;-77
2024/01/25 07:49:59;;;;;;;8.27;2.53;;;14.40;99.90;;;;;;5019249;28;19913;-76
2024/01/25 07:52:24;;;;;;;6.70;2.10;;;14.30;99.90;;;;;;5003389;28;20533;-81
2024/01/25 07:54:53;;;;;;;5.23;1.83;;;14.30;99.90;;;;;;5019242;28;20096;-78
2024/01/25 07:57:19;;;;;;;4.55;1.80;;;14.30;99.90;;;;;;5007677;28;20430;-79
2024/01/25 07:59:44;;;;;;;5.65;1.90;;;14.30;99.90;;;;;;5011303;28;20128;-75
2024/01/25 08:02:10;;;;;;;5.37;1.50;;;14.30;99.90;;;;;;5010707;28;20473;-79
2024/01/25 08:04:36;;;;;;;11.73;2.20;;;14.40;99.90;;;;;;5036681;28;20037;-76
2024/01/25 08:07:02;;;;;;;9.67;1.90;;;14.40;99.90;;;;;;5048631;28;20119;-78
2024/01/25 08:09:28;;;;;;;13.52;2.20;;;14.40;99.90;;;;;;5039631;28;20034;-76
2024/01/25 08:11:54;;;;;;;13.50;2.43;;;14.40;99.90;;;;;;5044686;28;20033;-77
2024/01/25 08:14:19;;;;;;;9.07;1.70;;;14.50;99.90;;;;;;5050918;28;20083;-77
2024/01/25 08:16:45;;;;;;;19.97;2.93;;;14.50;99.90;;;;;;5054922;28;20530;-77
2024/01/25 08:19:11;;;;;;;12.77;2.88;;;14.50;99.90;;;;;;5056750;28;20033;-78
2024/01/25 08:21:37;;;;;;;15.27;3.13;;;14.50;99.90;;;;;;5057915;28;20036;-76
2024/01/25 08:24:04;;;;;;;11.67;2.87;;;14.50;99.90;;;;;;5034485;28;20026;-78
2024/01/25 08:26:29;;;;;;;;;;;14.60;99.90;;;;;;5051219;28;20094;-76
2024/01/25 08:28:55;;;;;;;8.43;2.03;;;14.60;99.90;;;;;;5046458;28;20376;-76
2024/01/25 08:31:20;;;;;;;42.40;12.83;;;14.70;99.90;;;;;;5060749;28;20032;-76
2024/01/25 08:33:47;;;;;;;270.17;117.77;;;14.70;99.90;;;;;;5061065;28;20052;-75
2024/01/25 08:36:19;;;;;;;171.38;76.25;;;14.80;99.90;;;;;;5055912;28;20029;-76
2024/01/25 08:38:45;;;;;;;126.40;56.17;;;15.00;99.90;;;;;;5063073;28;20032;-77
2024/01/25 08:41:11;;;;;;;106.65;46.22;;;15.10;99.90;;;;;;5045535;28;20125;-75
2024/01/25 08:43:37;;;;;;;81.03;36.20;;;15.20;99.90;;;;;;5048828;28;20532;-78
2024/01/25 08:46:03;;;;;;;74.60;30.70;;;15.10;99.90;;;;;;5043108;28;20028;-75
2024/01/25 08:48:28;;;;;;;52.38;21.42;;;15.10;99.90;;;;;;5059727;28;20035;-74
2024/01/25 08:50:54;;;;;;;59.30;21.87;;;15.10;99.90;;;;;;5048520;28;20025;-75
2024/01/25 08:53:27;;;;;;;49.60;20.87;;;15.10;99.90;;;;;;5046662;28;20037;-76
2024/01/25 08:55:53;;;;;;;44.78;20.40;;;15.10;99.90;;;;;;5060854;28;20020;-76
2024/01/25 08:58:19;;;;;;;56.72;21.77;;;15.10;99.90;;;;;;5043130;28;20103;-77
2024/01/25 09:00:45;;;;;;;45.72;20.92;;;15.10;99.90;;;;;;5059478;28;20464;-78
2024/01/25 09:03:11;;;;;;;41.57;18.43;;;15.10;99.90;;;;;;5047922;28;20057;-77
2024/01/25 09:05:40;;;;;;;45.60;18.07;;;15.10;99.90;;;;;;5045260;28;20021;-80
2024/01/25 09:08:06;;;;;;;38.60;17.30;;;15.10;99.90;;;;;;5041708;28;20039;-78
2024/01/25 09:10:32;;;;;;;41.80;16.88;;;15.00;99.90;;;;;;5036571;28;20129;-78
2024/01/25 09:12:58;;;;;;;40.73;16.97;;;15.00;99.90;;;;;;5042004;28;20533;-79
2024/01/25 09:15:24;;;;;;;54.90;17.33;;;15.00;99.90;;;;;;5042512;28;20037;-77
2024/01/25 09:17:49;;;;;;;59.30;25.60;;;15.00;99.90;;;;;;5039692;28;20033;-78
2024/01/25 09:20:15;;;;;;;51.23;20.00;;;14.90;99.90;;;;;;5044365;28;20125;-78
2024/01/25 09:22:41;;;;;;;52.23;21.43;;;15.00;99.90;;;;;;5033168;28;20061;-78
2024/01/25 09:25:07;;;;;;;55.30;17.23;;;14.90;99.90;;;;;;5033674;28;20037;-78
2024/01/25 09:27:33;;;;;;;45.23;17.03;;;15.00;99.90;;;;;;5032030;28;20364;-78
2024/01/25 09:29:59;;;;;;;38.37;16.00;;;15.00;99.90;;;;;;5077466;28;20102;-77
2024/01/25 09:32:24;;;;;;;35.40;15.20;;;15.00;99.90;;;;;;5039176;28;20021;-79
2024/01/25 09:34:50;;;;;;;29.83;14.33;;;15.00;99.90;;;;;;5041104;28;20040;-79
2024/01/25 09:37:17;;;;;;;38.43;14.73;;;15.00;99.90;;;;;;5049957;28;20064;-78
2024/01/25 09:39:42;;;;;;;34.85;16.48;;;15.10;99.90;;;;;;5038735;28;20177;-79
2024/01/25 09:42:09;;;;;;;35.53;19.50;;;15.20;99.90;;;;;;5046641;28;20153;-78
2024/01/25 09:44:35;;;;;;;31.85;18.27;;;15.20;99.90;;;;;;5043578;28;20029;-79
2024/01/25 09:47:05;;;;;;;45.37;17.97;;;15.50;99.90;;;;;;5045953;28;20028;-79
2024/01/25 09:49:31;;;;;;;39.80;17.33;;;15.70;99.90;;;;;;5044065;28;20033;-79
2024/01/25 09:51:57;;;;;;;35.97;16.90;;;16.00;99.90;;;;;;5038864;28;20487;-77
2024/01/25 09:54:24;;;;;;;35.22;16.20;;;16.40;99.90;;;;;;5050916;28;20194;-79
2024/01/25 09:56:54;;;;;;;34.17;14.63;;;16.80;99.90;;;;;;5057836;28;20037;-81
2024/01/25 09:59:19;;;;;;;30.02;14.65;;;16.90;99.90;;;;;;5046752;28;20044;-79
2024/01/25 10:01:48;;;;;;;29.77;14.47;;;16.70;99.90;;;;;;5043968;28;20379;-83
2024/01/25 10:04:14;;;;;;;28.60;14.30;;;16.30;99.90;;;;;;5035275;28;20635;-81
2024/01/25 10:06:39;;;;;;;37.90;14.27;;;16.10;99.90;;;;;;5041142;28;20030;-81
2024/01/25 10:09:08;;;;;;;28.33;12.63;;;16.10;99.90;;;;;;5048964;28;20031;-82
2024/01/25 10:11:35;;;;;;;34.55;12.85;;;16.00;99.90;;;;;;5049924;28;20021;-81
2024/01/25 10:14:01;;;;;;;25.60;12.27;;;16.00;99.90;;;;;;5042429;28;20108;-81
2024/01/25 10:16:27;;;;;;;25.40;12.50;;;15.90;99.90;;;;;;5071383;28;20108;-84
2024/01/25 10:18:53;;;;;;;36.73;19.53;;;15.90;99.90;;;;;;5040528;28;20148;-81
2024/01/25 10:21:18;;;;;;;24.63;14.17;;;15.90;99.90;;;;;;5041428;28;20512;-81
2024/01/25 10:23:48;;;;;;;34.63;14.60;;;15.90;99.90;;;;;;5045818;28;20020;-81
2024/01/25 10:26:14;;;;;;;26.42;13.95;;;16.00;99.90;;;;;;5054306;28;20039;-82
2024/01/25 10:28:40;;;;;;;30.02;13.18;;;16.00;99.90;;;;;;5055732;28;20029;-81
2024/01/25 10:31:06;;;;;;;27.10;13.47;;;16.10;99.90;;;;;;5040257;28;20040;-82
2024/01/25 10:33:32;;;;;;;30.63;13.98;;;16.00;99.90;;;;;;5035659;28;20021;-82
2024/01/25 10:36:03;;;;;;;27.83;12.57;;;16.10;99.90;;;;;;5048190;28;20082;-82
2024/01/25 10:38:36;;;;;;;20.58;11.63;;;16.10;99.90;;;;;;5074204;28;20052;-81
2024/01/25 10:41:05;;;;;;;20.65;11.52;;;16.10;99.90;;;;;;5036896;28;20053;-81
2024/01/25 10:43:31;;;;;;;29.02;11.60;;;16.10;99.90;;;;;;5041907;28;20036;-82
2024/01/25 10:45:58;;;;;;;23.00;11.55;;;16.10;99.90;;;;;;5049459;28;20029;-82
2024/01/25 10:48:27;;;;;;;;;;;16.10;99.90;;;;;;5047912;28;20033;-82
2024/01/25 10:50:54;;;;;;;22.90;10.70;;;16.10;99.90;;;;;;5040139;28;19912;-83
2024/01/25 10:53:21;;;;;;;24.88;11.00;;;16.20;99.90;;;;;;5045140;28;20025;-81
2024/01/25 10:55:47;;;;;;;;;;;16.20;99.90;;;;;;5046839;28;20029;-84
2024/01/25 10:58:15;;;;;;;22.73;10.75;;;16.20;99.90;;;;;;5069661;28;19917;-81
2024/01/25 11:00:41;;;;;;;27.42;10.20;;;16.20;99.90;;;;;;5049929;28;20025;-84
2024/01/25 11:03:07;;;;;;;24.17;9.87;;;16.20;99.90;;;;;;5049731;28;20390;-83
2024/01/25 11:05:33;;;;;;;28.63;10.05;;;16.20;99.90;;;;;;5049827;28;20029;-83
2024/01/25 11:08:00;;;;;;;28.23;9.47;;;16.20;99.90;;;;;;5046294;28;20037;-85
2024/01/25 11:10:27;;;;;;;;;;;16.20;99.90;;;;;;5044571;28;20167;-84
2024/01/25 11:12:57;;;;;;;20.02;9.43;;;16.20;99.90;;;;;;5064521;28;20413;-85
2024/01/25 11:15:43;;;;;;;19.17;9.27;;;16.30;99.90;;;;;;5052431;28;20024;-82
2024/01/25 11:18:09;;;;;;;18.27;9.52;;;16.30;99.90;;;;;;5030979;28;20056;-83
2024/01/25 11:20:37;;;;;;;17.37;9.20;;;16.40;99.90;;;;;;5040162;28;20029;-83
2024/01/25 11:23:09;;;;;;;19.20;9.93;;;16.50;99.90;;;;;;5041114;28;20030;-81
2024/01/25 11:25:36;;;;;;;17.55;8.48;;;16.60;99.90;;;;;;5040178;28;20378;-82
2024/01/25 11:28:04;;;;;;;16.83;8.13;;;16.60;99.90;;;;;;5049487;28;20025;-84
2024/01/25 11:30:34;;;;;;;16.35;7.72;;;16.60;99.90;;;;;;5047459;28;20033;-81
2024/01/25 11:33:04;;;;;;;14.77;6.93;;;16.60;99.90;;;;;;5054191;28;20033;-81
2024/01/25 11:35:29;;;;;;;18.20;7.20;;;16.60;99.90;;;;;;5048221;28;20462;-83
2024/01/25 11:37:55;;;;;;;17.80;7.80;;;16.60;99.90;;;;;;5055031;28;20045;-81
2024/01/25 11:40:21;;;;;;;22.27;8.23;;;16.60;99.90;;;;;;5042239;28;20092;-82
2024/01/25 11:42:49;;;;;;;16.45;7.70;;;16.60;99.90;;;;;;5038538;28;20025;-83
2024/01/25 11:45:16;;;;;;;17.00;7.15;;;16.70;99.90;;;;;;5055374;28;20037;-83
2024/01/25 11:47:43;;;;;;;16.77;7.30;;;16.70;99.90;;;;;;5053771;28;20029;-83
2024/01/25 11:50:11;;;;;;;20.10;7.72;;;16.70;99.90;;;;;;5046149;28;20029;-82
2024/01/25 11:52:38;;;;;;;17.70;7.88;;;16.80;99.90;;;;;;5051035;28;20033;-81
2024/01/25 11:55:06;;;;;;;16.20;7.30;;;16.80;99.90;;;;;;5039595;28;20049;-85
2024/01/25 11:57:43;;;;;;;18.55;8.23;;;16.90;99.90;;;;;;5055585;28;20064;-81
2024/01/25 12:00:13;;;;;;;19.13;7.95;;;16.90;99.90;;;;;;5052944;28;20120;-82
2024/01/25 12:02:39;;;;;;;13.60;6.55;;;17.00;99.90;;;;;;5043128;28;20025;-82
2024/01/25 12:05:06;;;;;;;14.18;6.47;;;17.00;99.90;;;;;;5054167;28;20142;-84
2024/01/25 12:07:32;;;;;;;15.43;6.90;;;17.00;99.90;;;;;;5053014;28;20056;-81
2024/01/25 12:10:08;;;;;;;18.30;6.97;;;17.00;99.90;;;;;;5055290;28;20163;-83
2024/01/25 12:12:40;;;;;;;20.42;6.72;;;17.10;99.90;;;;;;5063858;28;20040;-81
2024/01/25 12:15:07;;;;;;;14.82;5.85;;;17.10;99.90;;;;;;5058317;28;20029;-82
2024/01/25 12:17:36;;;;;;;19.88;6.22;;;17.20;99.90;;;;;;5054576;28;20029;-82
2024/01/25 12:20:02;;;;;;;18.35;5.80;;;17.20;99.90;;;;;;5065122;28;20416;-83
2024/01/25 12:22:29;;;;;;;18.33;5.50;;;17.20;99.90;;;;;;5054158;28;20334;-82
2024/01/25 12:24:58;;;;;;;15.43;6.00;;;17.10;99.90;;;;;;5047951;28;20048;-84
2024/01/25 12:27:25;;;;;;;17.92;6.03;;;17.10;99.90;;;;;;5045017;28;20026;-85
2024/01/25 12:29:53;;;;;;;17.83;6.18;;;17.10;99.90;;;;;;5046015;28;20041;-82
2024/01/25 12:32:20;;;;;;;14.27;5.95;;;17.10;99.90;;;;;;5041557;28;20052;-82
2024/01/25 12:34:54;;;;;;;18.77;7.07;;;17.20;99.90;;;;;;5037613;28;20025;-81
2024/01/25 12:37:20;;;;;;;14.23;5.80;;;17.30;99.90;;;;;;5050240;28;20597;-82